sensor_id;sensor_type;location;lat;lon;timestamp;pressure;altitude;pressure_sealevel;temperature;humidity
29359;BME280;16347;53.232;6.556;2023-04-29T00:01:41;101357.00;;;12.79;68.92
29359;BME280;16347;53.232;6.556;2023-04-29T00:04:09;101359.41;;;12.82;68.90
29359;BME280;16347;53.232;6.556;2023-04-29T00:06:37;101365.19;;;12.79;68.92
29359;BME280;16347;53.232;6.556;2023-04-29T00:09:05;101370.66;;;12.79;68.71
29359;BME280;16347;53.232;6.556;2023-04-29T00:11:34;101364.81;;;12.74;68.71
29359;BME280;16347;53.232;6.556;2023-04-29T00:14:03;101364.91;;;12.64;68.46
29359;BME280;16347;53.232;6.556;2023-04-29T00:16:31;101369.97;;;12.59;68.90
29359;BME280;16347;53.232;6.556;2023-04-29T00:18:59;101370.50;;;12.63;68.73
29359;BME280;16347;53.232;6.556;2023-04-29T00:21:27;101369.84;;;12.61;68.75
29359;BME280;16347;53.232;6.556;2023-04-29T00:23:55;101377.56;;;12.65;68.71
29359;BME280;16347;53.232;6.556;2023-04-29T00:26:23;101386.56;;;12.66;68.34
29359;BME280;16347;53.232;6.556;2023-04-29T00:28:51;101383.47;;;12.61;68.55
29359;BME280;16347;53.232;6.556;2023-04-29T00:31:21;101382.94;;;12.57;68.63
29359;BME280;16347;53.232;6.556;2023-04-29T00:33:49;101390.09;;;12.58;68.41
29359;BME280;16347;53.232;6.556;2023-04-29T00:36:17;101391.66;;;12.61;68.34
29359;BME280;16347;53.232;6.556;2023-04-29T00:38:45;101386.66;;;12.56;68.67
29359;BME280;16347;53.232;6.556;2023-04-29T00:41:12;101393.53;;;12.60;68.68
29359;BME280;16347;53.232;6.556;2023-04-29T00:43:41;101388.94;;;12.61;68.35
29359;BME280;16347;53.232;6.556;2023-04-29T00:46:09;101400.53;;;12.63;67.83
29359;BME280;16347;53.232;6.556;2023-04-29T00:48:38;101401.88;;;12.59;68.33
29359;BME280;16347;53.232;6.556;2023-04-29T00:51:07;101402.50;;;12.53;68.06
29359;BME280;16347;53.232;6.556;2023-04-29T00:53:35;101407.56;;;12.65;68.03
29359;BME280;16347;53.232;6.556;2023-04-29T00:56:04;101408.09;;;12.69;67.59
29359;BME280;16347;53.232;6.556;2023-04-29T00:58:33;101415.44;;;12.68;67.88
29359;BME280;16347;53.232;6.556;2023-04-29T01:01:01;101420.56;;;12.71;67.99
29359;BME280;16347;53.232;6.556;2023-04-29T01:03:30;101422.03;;;12.66;67.20
29359;BME280;16347;53.232;6.556;2023-04-29T01:06:07;101420.97;;;12.59;67.62
29359;BME280;16347;53.232;6.556;2023-04-29T01:08:43;101431.88;;;12.59;67.52
29359;BME280;16347;53.232;6.556;2023-04-29T01:11:20;101427.59;;;12.56;67.43
29359;BME280;16347;53.232;6.556;2023-04-29T01:13:49;101440.19;;;12.75;67.33
29359;BME280;16347;53.232;6.556;2023-04-29T01:16:22;101436.31;;;12.60;67.51
29359;BME280;16347;53.232;6.556;2023-04-29T01:18:54;101431.03;;;12.58;67.53
29359;BME280;16347;53.232;6.556;2023-04-29T01:21:30;101439.91;;;12.60;67.67
29359;BME280;16347;53.232;6.556;2023-04-29T01:23:59;101441.13;;;12.66;67.25
29359;BME280;16347;53.232;6.556;2023-04-29T01:26:32;101450.91;;;12.68;67.00
29359;BME280;16347;53.232;6.556;2023-04-29T01:29:21;101448.38;;;12.75;67.30
29359;BME280;16347;53.232;6.556;2023-04-29T01:32:01;101447.53;;;12.74;67.19
29359;BME280;16347;53.232;6.556;2023-04-29T01:34:36;101449.78;;;12.79;66.73
29359;BME280;16347;53.232;6.556;2023-04-29T01:37:12;101452.75;;;12.85;66.70
29359;BME280;16347;53.232;6.556;2023-04-29T01:39:56;101456.47;;;12.84;66.62
29359;BME280;16347;53.232;6.556;2023-04-29T01:42:37;101453.44;;;12.88;66.15
29359;BME280;16347;53.232;6.556;2023-04-29T01:45:14;101457.88;;;12.89;66.18
29359;BME280;16347;53.232;6.556;2023-04-29T01:47:44;101467.94;;;12.88;66.09
29359;BME280;16347;53.232;6.556;2023-04-29T01:50:14;101474.59;;;12.68;65.95
29359;BME280;16347;53.232;6.556;2023-04-29T01:52:42;101471.31;;;12.64;65.92
29359;BME280;16347;53.232;6.556;2023-04-29T01:55:11;101478.88;;;12.70;65.95
29359;BME280;16347;53.232;6.556;2023-04-29T01:57:50;101482.78;;;12.68;65.63
29359;BME280;16347;53.232;6.556;2023-04-29T02:00:56;101488.56;;;12.65;65.40
29359;BME280;16347;53.232;6.556;2023-04-29T02:03:25;101489.72;;;12.62;65.84
29359;BME280;16347;53.232;6.556;2023-04-29T02:05:55;101496.66;;;12.57;65.37
29359;BME280;16347;53.232;6.556;2023-04-29T02:08:24;101497.13;;;12.52;65.64
29359;BME280;16347;53.232;6.556;2023-04-29T02:10:56;101498.69;;;12.55;65.39
29359;BME280;16347;53.232;6.556;2023-04-29T02:13:31;101509.50;;;12.47;65.21
29359;BME280;16347;53.232;6.556;2023-04-29T02:16:06;101505.75;;;12.48;65.36
29359;BME280;16347;53.232;6.556;2023-04-29T02:18:34;101520.41;;;12.47;65.80
29359;BME280;16347;53.232;6.556;2023-04-29T02:21:04;101520.97;;;12.50;65.41
29359;BME280;16347;53.232;6.556;2023-04-29T02:23:33;101523.38;;;12.53;65.18
29359;BME280;16347;53.232;6.556;2023-04-29T02:26:03;101536.47;;;12.50;65.25
29359;BME280;16347;53.232;6.556;2023-04-29T02:28:32;101535.47;;;12.51;65.66
29359;BME280;16347;53.232;6.556;2023-04-29T02:31:01;101539.91;;;12.52;65.38
29359;BME280;16347;53.232;6.556;2023-04-29T02:33:29;101541.59;;;12.53;65.14
29359;BME280;16347;53.232;6.556;2023-04-29T02:35:57;101543.31;;;12.54;65.39
29359;BME280;16347;53.232;6.556;2023-04-29T02:38:25;101544.34;;;12.53;65.23
29359;BME280;16347;53.232;6.556;2023-04-29T02:40:53;101551.97;;;12.49;65.39
29359;BME280;16347;53.232;6.556;2023-04-29T02:43:22;101556.09;;;12.53;65.56
29359;BME280;16347;53.232;6.556;2023-04-29T02:45:50;101559.56;;;12.55;65.17
29359;BME280;16347;53.232;6.556;2023-04-29T02:48:18;101561.25;;;12.56;65.78
29359;BME280;16347;53.232;6.556;2023-04-29T02:50:46;101567.44;;;12.58;65.45
29359;BME280;16347;53.232;6.556;2023-04-29T02:53:14;101562.84;;;12.59;65.46
29359;BME280;16347;53.232;6.556;2023-04-29T02:55:42;101570.84;;;12.60;65.63
29359;BME280;16347;53.232;6.556;2023-04-29T02:58:10;101577.03;;;12.62;65.70
29359;BME280;16347;53.232;6.556;2023-04-29T03:00:40;101577.47;;;12.58;65.88
29359;BME280;16347;53.232;6.556;2023-04-29T03:03:08;101575.31;;;12.61;65.58
29359;BME280;16347;53.232;6.556;2023-04-29T03:05:36;101582.50;;;12.62;65.76
29359;BME280;16347;53.232;6.556;2023-04-29T03:08:04;101583.25;;;12.55;65.81
29359;BME280;16347;53.232;6.556;2023-04-29T03:10:33;101584.94;;;12.56;65.66
29359;BME280;16347;53.232;6.556;2023-04-29T03:13:01;101584.19;;;12.63;66.16
29359;BME280;16347;53.232;6.556;2023-04-29T03:15:30;101584.19;;;12.63;65.59
29359;BME280;16347;53.232;6.556;2023-04-29T03:18:00;101589.50;;;12.65;65.61
29359;BME280;16347;53.232;6.556;2023-04-29T03:20:32;101592.16;;;12.74;65.42
29359;BME280;16347;53.232;6.556;2023-04-29T03:23:02;101592.22;;;12.65;65.49
29359;BME280;16347;53.232;6.556;2023-04-29T03:25:30;101600.47;;;12.55;65.50
29359;BME280;16347;53.232;6.556;2023-04-29T03:27:57;101603.03;;;12.57;65.49
29359;BME280;16347;53.232;6.556;2023-04-29T03:30:25;101600.84;;;12.60;65.56
29359;BME280;16347;53.232;6.556;2023-04-29T03:32:55;101602.72;;;12.60;65.71
29359;BME280;16347;53.232;6.556;2023-04-29T03:35:26;101610.28;;;12.66;65.34
29359;BME280;16347;53.232;6.556;2023-04-29T03:38:23;101610.91;;;12.60;65.24
29359;BME280;16347;53.232;6.556;2023-04-29T03:40:52;101609.16;;;12.68;65.29
29359;BME280;16347;53.232;6.556;2023-04-29T03:43:21;101605.00;;;12.64;65.29
29359;BME280;16347;53.232;6.556;2023-04-29T03:45:48;101611.63;;;12.62;65.35
29359;BME280;16347;53.232;6.556;2023-04-29T03:48:20;101614.38;;;12.62;65.12
29359;BME280;16347;53.232;6.556;2023-04-29T03:50:49;101611.63;;;12.62;65.20
29359;BME280;16347;53.232;6.556;2023-04-29T03:53:17;101615.22;;;12.62;65.27
29359;BME280;16347;53.232;6.556;2023-04-29T03:55:46;101626.41;;;12.59;65.00
29359;BME280;16347;53.232;6.556;2023-04-29T03:58:15;101617.28;;;12.51;65.30
29359;BME280;16347;53.232;6.556;2023-04-29T04:00:43;101631.06;;;12.49;65.49
29359;BME280;16347;53.232;6.556;2023-04-29T04:03:17;101628.91;;;12.53;65.34
29359;BME280;16347;53.232;6.556;2023-04-29T04:05:45;101641.41;;;12.55;65.26
29359;BME280;16347;53.232;6.556;2023-04-29T04:08:16;101636.50;;;12.59;65.42
29359;BME280;16347;53.232;6.556;2023-04-29T04:10:44;101637.31;;;12.59;65.57
29359;BME280;16347;53.232;6.556;2023-04-29T04:13:22;101641.22;;;12.57;65.20
29359;BME280;16347;53.232;6.556;2023-04-29T04:15:50;101645.13;;;12.54;65.25
29359;BME280;16347;53.232;6.556;2023-04-29T04:18:18;101650.53;;;12.64;65.36
29359;BME280;16347;53.232;6.556;2023-04-29T04:20:46;101655.13;;;12.63;65.37
29359;BME280;16347;53.232;6.556;2023-04-29T04:23:15;101663.97;;;12.48;65.50
29359;BME280;16347;53.232;6.556;2023-04-29T04:25:44;101664.22;;;12.54;65.92
29359;BME280;16347;53.232;6.556;2023-04-29T04:28:38;101676.88;;;12.55;66.01
29359;BME280;16347;53.232;6.556;2023-04-29T04:31:11;101683.06;;;12.48;65.99
29359;BME280;16347;53.232;6.556;2023-04-29T04:33:40;101692.19;;;12.56;65.98
29359;BME280;16347;53.232;6.556;2023-04-29T04:36:08;101688.78;;;12.54;66.17
29359;BME280;16347;53.232;6.556;2023-04-29T04:38:37;101694.84;;;12.48;66.10
29359;BME280;16347;53.232;6.556;2023-04-29T04:41:09;101691.94;;;12.50;66.39
29359;BME280;16347;53.232;6.556;2023-04-29T04:43:38;101705.75;;;12.48;66.41
29359;BME280;16347;53.232;6.556;2023-04-29T04:46:13;101705.44;;;12.51;66.12
29359;BME280;16347;53.232;6.556;2023-04-29T04:49:02;101706.41;;;12.60;66.25
29359;BME280;16347;53.232;6.556;2023-04-29T04:51:32;101707.69;;;12.56;65.75
29359;BME280;16347;53.232;6.556;2023-04-29T04:54:02;101712.75;;;12.51;65.53
29359;BME280;16347;53.232;6.556;2023-04-29T04:56:31;101719.31;;;12.30;65.82
29359;BME280;16347;53.232;6.556;2023-04-29T04:59:00;101711.81;;;12.32;65.81
29359;BME280;16347;53.232;6.556;2023-04-29T05:01:28;101720.16;;;12.31;66.14
29359;BME280;16347;53.232;6.556;2023-04-29T05:03:56;101730.06;;;12.32;66.37
29359;BME280;16347;53.232;6.556;2023-04-29T05:06:24;101726.31;;;12.33;65.97
29359;BME280;16347;53.232;6.556;2023-04-29T05:08:52;101736.78;;;12.38;65.98
29359;BME280;16347;53.232;6.556;2023-04-29T05:11:21;101738.09;;;12.33;65.75
29359;BME280;16347;53.232;6.556;2023-04-29T05:14:05;101733.06;;;12.29;65.89
29359;BME280;16347;53.232;6.556;2023-04-29T05:16:33;101738.25;;;12.32;65.84
29359;BME280;16347;53.232;6.556;2023-04-29T05:19:01;101734.97;;;12.28;65.95
29359;BME280;16347;53.232;6.556;2023-04-29T05:21:33;101736.94;;;12.36;65.95
29359;BME280;16347;53.232;6.556;2023-04-29T05:24:01;101745.38;;;12.43;65.34
29359;BME280;16347;53.232;6.556;2023-04-29T05:26:30;101740.47;;;12.46;64.97
29359;BME280;16347;53.232;6.556;2023-04-29T05:29:00;101742.38;;;12.36;65.20
29359;BME280;16347;53.232;6.556;2023-04-29T05:31:32;101742.25;;;12.38;65.02
29359;BME280;16347;53.232;6.556;2023-04-29T05:34:03;101747.53;;;12.39;65.33
29359;BME280;16347;53.232;6.556;2023-04-29T05:36:31;101748.53;;;12.48;65.67
29359;BME280;16347;53.232;6.556;2023-04-29T05:38:59;101750.09;;;12.50;65.29
29359;BME280;16347;53.232;6.556;2023-04-29T05:41:27;101757.56;;;12.48;65.22
29359;BME280;16347;53.232;6.556;2023-04-29T05:44:11;101760.44;;;12.47;65.45
29359;BME280;16347;53.232;6.556;2023-04-29T05:46:39;101756.53;;;12.49;65.33
29359;BME280;16347;53.232;6.556;2023-04-29T05:49:07;101753.72;;;12.41;65.50
29359;BME280;16347;53.232;6.556;2023-04-29T05:51:35;101763.16;;;12.47;65.60
29359;BME280;16347;53.232;6.556;2023-04-29T05:54:03;101767.78;;;12.37;65.41
29359;BME280;16347;53.232;6.556;2023-04-29T05:56:31;101769.38;;;12.29;65.07
29359;BME280;16347;53.232;6.556;2023-04-29T05:58:59;101776.09;;;12.45;65.14
29359;BME280;16347;53.232;6.556;2023-04-29T06:01:28;101779.84;;;12.44;65.17
29359;BME280;16347;53.232;6.556;2023-04-29T06:03:57;101783.81;;;12.49;65.38
29359;BME280;16347;53.232;6.556;2023-04-29T06:06:31;101788.16;;;12.52;64.92
29359;BME280;16347;53.232;6.556;2023-04-29T06:09:06;101789.53;;;12.56;64.64
29359;BME280;16347;53.232;6.556;2023-04-29T06:11:43;101790.84;;;12.61;64.84
29359;BME280;16347;53.232;6.556;2023-04-29T06:14:11;101799.75;;;12.54;64.49
29359;BME280;16347;53.232;6.556;2023-04-29T06:16:40;101797.63;;;12.48;64.86
29359;BME280;16347;53.232;6.556;2023-04-29T06:19:08;101807.06;;;12.53;64.60
29359;BME280;16347;53.232;6.556;2023-04-29T06:21:36;101809.09;;;12.51;64.78
29359;BME280;16347;53.232;6.556;2023-04-29T06:24:05;101797.94;;;12.45;64.99
29359;BME280;16347;53.232;6.556;2023-04-29T06:26:33;101805.94;;;12.46;64.81
29359;BME280;16347;53.232;6.556;2023-04-29T06:29:02;101814.88;;;12.48;64.89
29359;BME280;16347;53.232;6.556;2023-04-29T06:31:30;101811.09;;;12.59;64.90
29359;BME280;16347;53.232;6.556;2023-04-29T06:34:03;101816.09;;;12.63;64.74
29359;BME280;16347;53.232;6.556;2023-04-29T06:36:33;101821.81;;;12.70;64.14
29359;BME280;16347;53.232;6.556;2023-04-29T06:39:21;101819.00;;;12.62;64.31
29359;BME280;16347;53.232;6.556;2023-04-29T06:42:12;101824.84;;;12.67;63.90
29359;BME280;16347;53.232;6.556;2023-04-29T06:45:06;101827.69;;;12.75;63.44
29359;BME280;16347;53.232;6.556;2023-04-29T06:47:38;101827.69;;;12.75;63.82
29359;BME280;16347;53.232;6.556;2023-04-29T06:50:12;101831.38;;;12.83;62.87
29359;BME280;16347;53.232;6.556;2023-04-29T06:52:42;101837.44;;;12.77;62.09
29359;BME280;16347;53.232;6.556;2023-04-29T06:55:10;101831.84;;;12.79;61.64
29359;BME280;16347;53.232;6.556;2023-04-29T06:57:40;101837.41;;;12.87;62.21
29359;BME280;16347;53.232;6.556;2023-04-29T07:00:09;101843.69;;;12.97;61.62
29359;BME280;16347;53.232;6.556;2023-04-29T07:02:37;101851.63;;;12.91;60.77
29359;BME280;16347;53.232;6.556;2023-04-29T07:05:06;101859.41;;;12.85;60.68
29359;BME280;16347;53.232;6.556;2023-04-29T07:07:36;101856.41;;;12.79;61.87
29359;BME280;16347;53.232;6.556;2023-04-29T07:10:04;101866.59;;;12.77;62.39
29359;BME280;16347;53.232;6.556;2023-04-29T07:12:32;101866.56;;;12.86;61.92
29359;BME280;16347;53.232;6.556;2023-04-29T07:15:00;101873.88;;;12.96;61.90
29359;BME280;16347;53.232;6.556;2023-04-29T07:17:28;101877.19;;;12.99;61.39
29359;BME280;16347;53.232;6.556;2023-04-29T07:19:57;101883.66;;;12.98;61.33
29359;BME280;16347;53.232;6.556;2023-04-29T07:22:25;101885.78;;;13.04;61.11
29359;BME280;16347;53.232;6.556;2023-04-29T07:24:54;101892.97;;;13.05;61.29
29359;BME280;16347;53.232;6.556;2023-04-29T07:27:23;101888.56;;;12.85;60.78
29359;BME280;16347;53.232;6.556;2023-04-29T07:29:51;101886.28;;;12.80;60.53
29359;BME280;16347;53.232;6.556;2023-04-29T07:32:19;101891.31;;;12.85;60.64
29359;BME280;16347;53.232;6.556;2023-04-29T07:34:47;101886.81;;;12.94;60.29
29359;BME280;16347;53.232;6.556;2023-04-29T07:37:15;101893.56;;;12.99;60.33
29359;BME280;16347;53.232;6.556;2023-04-29T07:39:42;101897.69;;;13.13;60.09
29359;BME280;16347;53.232;6.556;2023-04-29T07:42:12;101889.78;;;13.19;60.20
29359;BME280;16347;53.232;6.556;2023-04-29T07:44:40;101906.03;;;13.11;59.40
29359;BME280;16347;53.232;6.556;2023-04-29T07:47:08;101901.00;;;13.07;59.19
29359;BME280;16347;53.232;6.556;2023-04-29T07:49:36;101903.72;;;13.07;59.70
29359;BME280;16347;53.232;6.556;2023-04-29T07:52:04;101916.28;;;13.09;59.86
29359;BME280;16347;53.232;6.556;2023-04-29T07:54:33;101908.06;;;13.09;60.00
29359;BME280;16347;53.232;6.556;2023-04-29T07:57:01;101906.44;;;13.26;60.26
29359;BME280;16347;53.232;6.556;2023-04-29T07:59:31;101917.44;;;13.34;60.31
29359;BME280;16347;53.232;6.556;2023-04-29T08:02:00;101914.28;;;13.39;60.04
29359;BME280;16347;53.232;6.556;2023-04-29T08:04:28;101924.06;;;13.31;59.71
29359;BME280;16347;53.232;6.556;2023-04-29T08:07:03;101927.47;;;13.43;58.89
29359;BME280;16347;53.232;6.556;2023-04-29T08:09:30;101926.31;;;13.46;58.57
29359;BME280;16347;53.232;6.556;2023-04-29T08:11:58;101915.94;;;13.49;57.11
29359;BME280;16347;53.232;6.556;2023-04-29T08:14:27;101924.47;;;13.36;56.49
29359;BME280;16347;53.232;6.556;2023-04-29T08:16:57;101930.47;;;13.50;56.93
29359;BME280;16347;53.232;6.556;2023-04-29T08:19:24;101935.78;;;13.51;56.21
29359;BME280;16347;53.232;6.556;2023-04-29T08:21:52;101937.19;;;13.55;56.79
29359;BME280;16347;53.232;6.556;2023-04-29T08:24:20;101946.31;;;13.36;56.60
29359;BME280;16347;53.232;6.556;2023-04-29T08:26:48;101949.03;;;13.46;57.00
29359;BME280;16347;53.232;6.556;2023-04-29T08:29:17;101942.78;;;13.54;57.22
29359;BME280;16347;53.232;6.556;2023-04-29T08:31:45;101954.69;;;13.35;56.65
29359;BME280;16347;53.232;6.556;2023-04-29T08:34:14;101951.16;;;13.15;56.28
29359;BME280;16347;53.232;6.556;2023-04-29T08:36:42;101958.13;;;13.37;56.13
29359;BME280;16347;53.232;6.556;2023-04-29T08:39:10;101965.69;;;13.43;54.89
29359;BME280;16347;53.232;6.556;2023-04-29T08:41:38;101959.63;;;13.59;55.36
29359;BME280;16347;53.232;6.556;2023-04-29T08:44:05;101970.00;;;13.55;53.86
29359;BME280;16347;53.232;6.556;2023-04-29T08:46:33;101972.84;;;13.54;53.25
29359;BME280;16347;53.232;6.556;2023-04-29T08:49:02;101969.81;;;13.57;51.95
29359;BME280;16347;53.232;6.556;2023-04-29T08:51:31;101981.78;;;13.56;49.77
29359;BME280;16347;53.232;6.556;2023-04-29T08:54:00;101982.78;;;13.55;49.77
29359;BME280;16347;53.232;6.556;2023-04-29T08:56:30;101983.22;;;13.50;50.10
29359;BME280;16347;53.232;6.556;2023-04-29T08:58:58;101990.50;;;13.69;49.75
29359;BME280;16347;53.232;6.556;2023-04-29T09:01:27;101993.09;;;13.61;48.89
29359;BME280;16347;53.232;6.556;2023-04-29T09:04:03;101989.06;;;13.65;48.60
29359;BME280;16347;53.232;6.556;2023-04-29T09:06:37;101997.81;;;13.68;49.21
29359;BME280;16347;53.232;6.556;2023-04-29T09:09:05;101995.28;;;13.84;49.02
29359;BME280;16347;53.232;6.556;2023-04-29T09:11:34;101995.97;;;13.96;49.61
29359;BME280;16347;53.232;6.556;2023-04-29T09:14:03;101999.63;;;14.05;49.97
29359;BME280;16347;53.232;6.556;2023-04-29T09:16:31;101998.09;;;14.02;48.76
29359;BME280;16347;53.232;6.556;2023-04-29T09:19:00;102000.75;;;14.12;48.77
29359;BME280;16347;53.232;6.556;2023-04-29T09:21:29;101998.44;;;14.17;49.63
29359;BME280;16347;53.232;6.556;2023-04-29T09:24:00;101997.25;;;14.19;48.84
29359;BME280;16347;53.232;6.556;2023-04-29T09:26:40;102015.59;;;14.27;48.05
29359;BME280;16347;53.232;6.556;2023-04-29T09:29:10;102011.06;;;14.18;46.70
29359;BME280;16347;53.232;6.556;2023-04-29T09:31:40;102007.53;;;14.08;45.67
29359;BME280;16347;53.232;6.556;2023-04-29T09:34:09;102006.66;;;14.07;46.17
29359;BME280;16347;53.232;6.556;2023-04-29T09:36:39;102007.09;;;14.12;46.85
29359;BME280;16347;53.232;6.556;2023-04-29T09:39:10;102015.13;;;14.14;47.42
29359;BME280;16347;53.232;6.556;2023-04-29T09:41:41;102011.28;;;14.34;47.65
29359;BME280;16347;53.232;6.556;2023-04-29T09:44:09;102009.09;;;14.37;47.05
29359;BME280;16347;53.232;6.556;2023-04-29T09:46:37;102018.41;;;14.45;46.88
29359;BME280;16347;53.232;6.556;2023-04-29T09:49:21;102011.75;;;14.65;47.20
29359;BME280;16347;53.232;6.556;2023-04-29T09:51:54;102018.56;;;14.61;48.99
29359;BME280;16347;53.232;6.556;2023-04-29T09:54:24;102018.22;;;14.28;49.23
29359;BME280;16347;53.232;6.556;2023-04-29T09:56:55;102020.69;;;14.22;50.11
29359;BME280;16347;53.232;6.556;2023-04-29T09:59:24;102022.56;;;14.21;50.13
29359;BME280;16347;53.232;6.556;2023-04-29T10:01:53;102021.81;;;14.29;50.09
29359;BME280;16347;53.232;6.556;2023-04-29T10:04:23;102034.91;;;14.35;49.35
29359;BME280;16347;53.232;6.556;2023-04-29T10:06:53;102023.81;;;14.36;48.44
29359;BME280;16347;53.232;6.556;2023-04-29T10:09:24;102030.84;;;14.39;47.07
29359;BME280;16347;53.232;6.556;2023-04-29T10:11:52;102017.50;;;14.26;46.51
29359;BME280;16347;53.232;6.556;2023-04-29T10:14:22;102026.22;;;14.40;46.10
29359;BME280;16347;53.232;6.556;2023-04-29T10:16:58;102021.13;;;14.45;46.84
29359;BME280;16347;53.232;6.556;2023-04-29T10:19:32;102021.56;;;14.50;46.99
29359;BME280;16347;53.232;6.556;2023-04-29T10:22:07;102021.00;;;14.64;48.24
29359;BME280;16347;53.232;6.556;2023-04-29T10:24:38;102032.66;;;14.66;47.28
29359;BME280;16347;53.232;6.556;2023-04-29T10:27:06;102022.34;;;14.60;45.98
29359;BME280;16347;53.232;6.556;2023-04-29T10:29:35;102018.50;;;14.70;47.49
29359;BME280;16347;53.232;6.556;2023-04-29T10:32:06;102026.63;;;14.80;46.73
29359;BME280;16347;53.232;6.556;2023-04-29T10:34:36;102020.13;;;14.81;44.78
29359;BME280;16347;53.232;6.556;2023-04-29T10:37:07;102026.00;;;14.86;45.54
29359;BME280;16347;53.232;6.556;2023-04-29T10:39:43;102026.13;;;14.84;42.74
29359;BME280;16347;53.232;6.556;2023-04-29T10:42:20;102023.09;;;14.87;43.62
29359;BME280;16347;53.232;6.556;2023-04-29T10:45:18;102027.09;;;14.93;41.77
29359;BME280;16347;53.232;6.556;2023-04-29T10:48:09;102031.78;;;15.01;41.87
29359;BME280;16347;53.232;6.556;2023-04-29T10:50:59;102035.75;;;15.06;43.82
29359;BME280;16347;53.232;6.556;2023-04-29T10:53:29;102033.88;;;15.07;41.95
29359;BME280;16347;53.232;6.556;2023-04-29T10:56:06;102035.22;;;15.03;40.67
29359;BME280;16347;53.232;6.556;2023-04-29T10:58:41;102037.78;;;15.04;39.82
29359;BME280;16347;53.232;6.556;2023-04-29T11:01:11;102042.34;;;14.96;36.71
29359;BME280;16347;53.232;6.556;2023-04-29T11:03:53;102039.50;;;15.05;36.79
29359;BME280;16347;53.232;6.556;2023-04-29T11:06:26;102047.16;;;15.02;37.43
29359;BME280;16347;53.232;6.556;2023-04-29T11:09:08;102048.03;;;14.84;38.02
29359;BME280;16347;53.232;6.556;2023-04-29T11:12:01;102048.28;;;14.91;37.79
29359;BME280;16347;53.232;6.556;2023-04-29T11:14:35;102044.53;;;14.92;36.26
29359;BME280;16347;53.232;6.556;2023-04-29T11:17:06;102044.72;;;14.91;35.91
29359;BME280;16347;53.232;6.556;2023-04-29T11:19:36;102051.03;;;14.73;39.40
29359;BME280;16347;53.232;6.556;2023-04-29T11:22:12;102046.25;;;14.75;39.88
29359;BME280;16347;53.232;6.556;2023-04-29T11:24:52;102054.06;;;14.88;39.98
29359;BME280;16347;53.232;6.556;2023-04-29T11:27:23;102048.59;;;14.88;39.66
29359;BME280;16347;53.232;6.556;2023-04-29T11:29:57;102038.72;;;14.95;39.47
29359;BME280;16347;53.232;6.556;2023-04-29T11:32:27;102050.47;;;15.05;41.34
29359;BME280;16347;53.232;6.556;2023-04-29T11:35:06;102047.00;;;15.21;42.39
29359;BME280;16347;53.232;6.556;2023-04-29T11:37:34;102050.88;;;15.36;44.32
29359;BME280;16347;53.232;6.556;2023-04-29T11:40:03;102062.44;;;15.48;43.28
29359;BME280;16347;53.232;6.556;2023-04-29T11:42:34;102057.41;;;15.61;41.88
29359;BME280;16347;53.232;6.556;2023-04-29T11:45:03;102058.38;;;15.77;44.11
29359;BME280;16347;53.232;6.556;2023-04-29T11:47:32;102067.41;;;15.70;42.35
29359;BME280;16347;53.232;6.556;2023-04-29T11:50:04;102061.91;;;15.70;41.15
29359;BME280;16347;53.232;6.556;2023-04-29T11:52:35;102065.66;;;15.61;43.22
29359;BME280;16347;53.232;6.556;2023-04-29T11:55:04;102072.94;;;15.52;42.57
29359;BME280;16347;53.232;6.556;2023-04-29T11:57:34;102071.34;;;15.24;41.49
29359;BME280;16347;53.232;6.556;2023-04-29T12:00:03;102073.81;;;15.35;41.20
29359;BME280;16347;53.232;6.556;2023-04-29T12:02:35;102081.91;;;15.62;40.03
29359;BME280;16347;53.232;6.556;2023-04-29T12:05:05;102081.69;;;15.56;40.51
29359;BME280;16347;53.232;6.556;2023-04-29T12:07:34;102075.34;;;15.55;38.63
29359;BME280;16347;53.232;6.556;2023-04-29T12:10:02;102079.19;;;15.45;39.38
29359;BME280;16347;53.232;6.556;2023-04-29T12:12:33;102081.56;;;15.57;39.36
29359;BME280;16347;53.232;6.556;2023-04-29T12:15:02;102085.91;;;15.68;38.09
29359;BME280;16347;53.232;6.556;2023-04-29T12:17:31;102080.44;;;15.68;39.25
29359;BME280;16347;53.232;6.556;2023-04-29T12:20:00;102074.22;;;15.66;39.82
29359;BME280;16347;53.232;6.556;2023-04-29T12:22:30;102069.97;;;16.05;42.19
29359;BME280;16347;53.232;6.556;2023-04-29T12:24:58;102078.66;;;16.26;38.56
29359;BME280;16347;53.232;6.556;2023-04-29T12:27:26;102069.63;;;16.50;38.94
29359;BME280;16347;53.232;6.556;2023-04-29T12:29:55;102075.34;;;16.57;36.81
29359;BME280;16347;53.232;6.556;2023-04-29T12:32:24;102073.25;;;16.51;35.59
29359;BME280;16347;53.232;6.556;2023-04-29T12:34:52;102077.00;;;16.50;36.35
29359;BME280;16347;53.232;6.556;2023-04-29T12:37:21;102070.31;;;16.52;34.72
29359;BME280;16347;53.232;6.556;2023-04-29T12:39:50;102071.13;;;16.36;34.57
29359;BME280;16347;53.232;6.556;2023-04-29T12:42:18;102073.41;;;16.49;35.88
29359;BME280;16347;53.232;6.556;2023-04-29T12:44:46;102071.84;;;16.47;36.33
29359;BME280;16347;53.232;6.556;2023-04-29T12:47:16;102074.25;;;16.41;34.62
29359;BME280;16347;53.232;6.556;2023-04-29T12:49:45;102070.66;;;16.49;35.76
29359;BME280;16347;53.232;6.556;2023-04-29T12:52:13;102074.00;;;16.77;35.39
29359;BME280;16347;53.232;6.556;2023-04-29T12:54:42;102075.38;;;16.73;35.26
29359;BME280;16347;53.232;6.556;2023-04-29T12:57:10;102075.72;;;16.62;36.25
29359;BME280;16347;53.232;6.556;2023-04-29T12:59:38;102078.28;;;16.63;36.49
29359;BME280;16347;53.232;6.556;2023-04-29T13:02:06;102064.25;;;16.90;36.62
29359;BME280;16347;53.232;6.556;2023-04-29T13:04:36;102069.06;;;17.05;37.19
29359;BME280;16347;53.232;6.556;2023-04-29T13:07:05;102071.63;;;17.06;36.43
29359;BME280;16347;53.232;6.556;2023-04-29T13:09:33;102073.69;;;17.04;37.36